createdAt,value
2018-11-20T00:00:10.746Z,10.63
2018-11-20T00:03:09.404Z,10.40
2018-11-20T00:06:10.367Z,10.77
2018-11-20T00:09:03.194Z,10.37
2018-11-20T00:11:55.250Z,12.30
2018-11-20T00:14:48.796Z,10.57
2018-11-20T00:17:33.618Z,11.47
2018-11-20T00:20:25.325Z,11.47
2018-11-20T00:23:24.196Z,10.73
2018-11-20T00:26:21.854Z,12.33
2018-11-20T00:29:19.914Z,11.20
2018-11-20T00:34:51.708Z,11.10
2018-11-20T00:40:28.837Z,13.30
2018-11-20T00:45:50.301Z,12.73
2018-11-20T00:51:15.075Z,12.37
2018-11-20T00:54:10.783Z,11.80
2018-11-20T00:57:08.205Z,13.20
2018-11-20T01:00:07.552Z,13.53
2018-11-20T01:03:01.934Z,13.60
2018-11-20T01:08:21.475Z,13.03
2018-11-20T01:13:49.932Z,16.93
2018-11-20T01:16:51.739Z,12.10
2018-11-20T01:20:02.099Z,13.80
2018-11-20T01:22:49.492Z,13.40
2018-11-20T01:25:43.492Z,14.73
2018-11-20T01:28:32.423Z,14.50
2018-11-20T01:31:30.695Z,14.63
2018-11-20T01:34:03.449Z,15.63
2018-11-20T01:36:56.896Z,14.27
2018-11-20T01:39:48.759Z,14.43
2018-11-20T01:42:48.149Z,14.60
2018-11-20T01:45:42.224Z,14.90
2018-11-20T01:48:31.344Z,15.40
2018-11-20T01:51:28.394Z,15.23
2018-11-20T01:54:24.201Z,16.53
2018-11-20T01:57:27.721Z,17.73
2018-11-20T02:00:31.332Z,18.33
2018-11-20T02:05:58.652Z,15.53
2018-11-20T02:08:59.522Z,14.27
2018-11-20T02:12:05.211Z,15.83
2018-11-20T02:15:17.982Z,15.87
2018-11-20T02:18:11.093Z,17.13
2018-11-20T02:20:59.993Z,17.33
2018-11-20T02:23:56.045Z,18.50
2018-11-20T02:26:57.515Z,17.73
2018-11-20T02:29:47.866Z,18.13
2018-11-20T02:32:42.808Z,19.00
2018-11-20T02:35:36.268Z,16.80
2018-11-20T02:38:39.882Z,17.87
2018-11-20T02:41:27.036Z,16.60
2018-11-20T02:44:28.045Z,19.57
2018-11-20T02:47:33.319Z,18.70
2018-11-20T02:50:32.000Z,18.40
2018-11-20T02:53:24.273Z,18.27
2018-11-20T02:56:17.983Z,17.67
2018-11-20T02:59:26.373Z,17.53
2018-11-20T03:01:59.179Z,21.20
2018-11-20T03:05:13.324Z,19.53
2018-11-20T03:08:09.138Z,21.93
2018-11-20T03:11:02.006Z,19.03
2018-11-20T03:14:15.488Z,20.80
2018-11-20T03:17:03.521Z,20.00
2018-11-20T03:19:56.246Z,19.43
2018-11-20T03:22:52.684Z,19.07
2018-11-20T03:25:25.519Z,18.40
2018-11-20T03:28:39.238Z,20.07
2018-11-20T03:31:34.924Z,22.33
2018-11-20T03:34:24.263Z,19.00
2018-11-20T03:37:13.353Z,18.97
2018-11-20T03:40:07.491Z,19.43
2018-11-20T03:43:04.777Z,17.33
2018-11-20T03:48:44.753Z,20.13
2018-11-20T03:51:43.503Z,18.77
2018-11-20T03:54:38.690Z,18.83
2018-11-20T03:57:37.573Z,18.43
2018-11-20T04:00:32.382Z,17.77
2018-11-20T04:05:49.970Z,19.87
2018-11-20T04:08:43.202Z,18.93
2018-11-20T04:11:26.026Z,18.63
2018-11-20T04:14:18.286Z,19.37
2018-11-20T04:17:08.727Z,19.70
2018-11-20T04:22:31.211Z,18.43
2018-11-20T04:25:32.335Z,19.17
2018-11-20T04:30:46.095Z,18.30
2018-11-20T04:34:09.251Z,18.20
2018-11-20T04:39:41.677Z,19.17
2018-11-20T04:45:01.466Z,18.53
2018-11-20T04:47:59.216Z,17.97
2018-11-20T04:50:50.379Z,16.40
2018-11-20T04:53:54.029Z,18.73
2018-11-20T04:56:51.665Z,19.50
2018-11-20T04:59:46.840Z,18.37
2018-11-20T05:02:42.083Z,17.70
2018-11-20T05:08:05.563Z,16.97
2018-11-20T05:10:49.596Z,18.80
2018-11-20T05:13:56.099Z,17.83
2018-11-20T05:19:15.607Z,17.67
2018-11-20T05:24:31.945Z,19.40
2018-11-20T05:27:24.899Z,19.20
2018-11-20T05:30:22.833Z,19.93
2018-11-20T05:33:14.330Z,19.27
2018-11-20T05:36:18.206Z,17.60
2018-11-20T05:38:51.190Z,20.27
2018-11-20T05:44:28.292Z,18.67
2018-11-20T05:47:20.135Z,18.77
2018-11-20T05:50:26.411Z,18.53
2018-11-20T05:52:57.559Z,18.80
2018-11-20T05:55:50.447Z,21.50
2018-11-20T05:58:42.453Z,20.63
2018-11-20T06:04:20.103Z,19.60
2018-11-20T06:07:24.706Z,19.27
2018-11-20T06:10:15.953Z,21.77
2018-11-20T06:13:10.748Z,22.40
2018-11-20T06:15:58.223Z,18.63
2018-11-20T06:18:58.642Z,21.90
2018-11-20T06:21:50.128Z,20.43
2018-11-20T06:27:45.030Z,21.23
2018-11-20T06:30:29.432Z,22.07
2018-11-20T06:33:31.576Z,20.17
2018-11-20T06:36:23.515Z,23.13
2018-11-20T06:39:09.515Z,23.13
2018-11-20T06:42:00.711Z,23.50
2018-11-20T06:44:53.369Z,21.20
2018-11-20T06:47:46.608Z,24.07
2018-11-20T06:50:46.820Z,20.47
2018-11-20T06:53:41.417Z,22.77
2018-11-20T06:56:40.503Z,21.40
2018-11-20T06:59:38.456Z,22.47
2018-11-20T07:02:36.847Z,21.13
2018-11-20T07:05:36.201Z,22.63
2018-11-20T07:08:29.559Z,21.83
2018-11-20T07:14:19.077Z,21.93
2018-11-20T07:17:12.339Z,21.27
2018-11-20T07:20:14.940Z,26.37
2018-11-20T07:23:19.941Z,20.17
2018-11-20T07:26:01.985Z,23.80
2018-11-20T07:28:55.438Z,22.63
2018-11-20T07:31:44.408Z,21.77
2018-11-20T07:34:45.303Z,21.40
2018-11-20T07:37:36.495Z,20.93
2018-11-20T07:40:46.317Z,24.77
2018-11-20T07:43:48.027Z,22.23
2018-11-20T07:46:47.729Z,21.77
2018-11-20T07:49:37.862Z,23.77
2018-11-20T07:55:04.010Z,25.87
2018-11-20T07:57:45.810Z,22.93
2018-11-20T08:03:49.006Z,25.47
2018-11-20T08:06:24.827Z,27.00
2018-11-20T08:09:16.034Z,27.07
2018-11-20T08:12:12.249Z,25.33
2018-11-20T08:14:59.787Z,25.67
2018-11-20T08:17:52.480Z,25.53
2018-11-20T08:20:46.220Z,24.60
2018-11-20T08:23:36.903Z,24.07
2018-11-20T08:26:30.834Z,28.10
2018-11-20T08:29:20.653Z,27.67
2018-11-20T08:32:07.933Z,27.07
2018-11-20T08:34:59.936Z,27.80
2018-11-20T08:37:52.977Z,27.57
2018-11-20T08:43:02.950Z,28.50
2018-11-20T08:45:54.473Z,30.17
2018-11-20T08:48:40.944Z,26.50
2018-11-20T08:54:45.170Z,27.63
2018-11-20T08:57:33.848Z,28.57
2018-11-20T09:00:40.033Z,27.77
2018-11-20T09:03:36.175Z,27.90
2018-11-20T09:09:13.289Z,30.03
2018-11-20T09:12:25.931Z,29.13
2018-11-20T09:15:19.697Z,31.10
2018-11-20T09:18:11.696Z,30.37
2018-11-20T09:21:04.809Z,30.03
2018-11-20T09:26:29.126Z,29.60
2018-11-20T09:29:32.362Z,31.87
2018-11-20T09:32:15.884Z,29.83
2018-11-20T09:35:11.130Z,30.63
2018-11-20T09:38:19.587Z,31.07
2018-11-20T09:41:03.414Z,30.30
2018-11-20T09:44:07.475Z,29.30
2018-11-20T09:47:03.494Z,32.93
2018-11-20T09:49:53.920Z,29.87
2018-11-20T09:52:48.432Z,28.00
2018-11-20T09:55:32.943Z,28.50
2018-11-20T09:58:43.384Z,29.93
2018-11-20T10:01:42.493Z,30.90
2018-11-20T10:04:25.383Z,28.50
2018-11-20T10:07:22.410Z,29.47
2018-11-20T10:12:59.848Z,29.77
2018-11-20T10:15:48.944Z,28.23
2018-11-20T10:18:53.116Z,31.80
2018-11-20T10:21:42.530Z,29.03
2018-11-20T10:24:36.868Z,29.57
2018-11-20T10:27:33.373Z,30.90
2018-11-20T10:30:29.758Z,29.50
2018-11-20T10:33:22.616Z,30.07
2018-11-20T10:36:27.661Z,29.57
2018-11-20T10:39:19.381Z,30.07
2018-11-20T10:42:16.877Z,27.00
2018-11-20T10:45:07.681Z,26.70
2018-11-20T10:48:00.976Z,27.50
2018-11-20T10:50:34.455Z,28.90
2018-11-20T10:53:18.517Z,26.80
2018-11-20T10:56:16.995Z,29.50
2018-11-20T10:59:13.356Z,26.80
2018-11-20T11:02:01.541Z,28.17
2018-11-20T11:04:45.346Z,28.00
2018-11-20T11:07:39.598Z,27.10
2018-11-20T11:10:53.692Z,29.17
2018-11-20T11:13:55.230Z,27.83
2018-11-20T11:17:02.617Z,29.90
2018-11-20T11:19:32.689Z,27.97
2018-11-20T11:22:19.234Z,28.63
2018-11-20T11:25:23.327Z,28.80
2018-11-20T11:30:38.019Z,26.67
2018-11-20T11:33:42.905Z,30.40
2018-11-20T11:36:34.639Z,27.63
2018-11-20T11:39:25.093Z,27.07
2018-11-20T11:42:13.493Z,30.00
2018-11-20T11:45:15.994Z,27.33
2018-11-20T11:48:03.791Z,28.57
2018-11-20T11:50:59.707Z,27.73
2018-11-20T11:53:29.865Z,29.27
2018-11-20T11:56:23.940Z,32.30
2018-11-20T11:59:18.575Z,29.67
2018-11-20T12:05:06.345Z,30.83
2018-11-20T12:08:05.675Z,26.10
2018-11-20T12:10:56.983Z,30.97
2018-11-20T12:13:50.004Z,28.13
2018-11-20T12:16:40.732Z,30.67
2018-11-20T12:19:32.075Z,27.40
2018-11-20T12:22:26.731Z,31.43
2018-11-20T12:25:20.219Z,28.83
2018-11-20T12:28:21.069Z,30.27
2018-11-20T12:31:03.754Z,27.90
2018-11-20T12:34:11.650Z,29.40
2018-11-20T12:37:19.596Z,29.73
2018-11-20T12:42:41.048Z,29.87
2018-11-20T12:45:34.343Z,30.07
2018-11-20T12:48:29.142Z,30.77
2018-11-20T12:51:22.606Z,27.87
2018-11-20T12:56:46.687Z,31.47
2018-11-20T12:59:41.361Z,30.00
2018-11-20T13:02:12.029Z,30.97
2018-11-20T13:05:11.299Z,32.60
2018-11-20T13:08:03.488Z,29.60
2018-11-20T13:11:02.660Z,29.87
2018-11-20T13:13:50.204Z,29.90
2018-11-20T13:16:54.739Z,28.17
2018-11-20T13:20:03.901Z,30.33
2018-11-20T13:25:34.475Z,29.33
2018-11-20T13:30:58.654Z,30.13
2018-11-20T13:33:47.969Z,30.40
2018-11-20T13:36:49.559Z,29.37
2018-11-20T13:42:26.592Z,30.60
2018-11-20T13:45:21.363Z,29.87
2018-11-20T13:48:12.105Z,30.77
2018-11-20T13:51:16.751Z,30.27
2018-11-20T13:54:29.511Z,28.90
2018-11-20T13:57:27.201Z,33.90
2018-11-20T14:00:19.974Z,31.33
2018-11-20T14:03:34.096Z,31.87
2018-11-20T14:06:27.152Z,34.13
2018-11-20T14:09:00.321Z,31.97
2018-11-20T14:11:50.522Z,30.37
2018-11-20T14:14:35.988Z,30.47
2018-11-20T14:17:50.731Z,31.33
2018-11-20T14:20:49.818Z,30.83
2018-11-20T14:23:39.119Z,30.73
2018-11-20T14:26:22.930Z,32.17
2018-11-20T14:32:03.269Z,30.37
2018-11-20T14:34:54.433Z,28.87
2018-11-20T14:37:48.996Z,29.83
2018-11-20T14:40:42.391Z,29.60
2018-11-20T14:43:52.897Z,29.23
2018-11-20T14:46:45.006Z,37.17
2018-11-20T14:49:31.527Z,31.73
2018-11-20T14:52:26.657Z,30.33
2018-11-20T14:55:25.350Z,33.27
2018-11-20T14:58:15.169Z,36.60
2018-11-20T15:01:20.512Z,32.23
2018-11-20T15:04:15.023Z,33.70
2018-11-20T15:07:14.187Z,33.90
2018-11-20T15:09:49.910Z,34.93
2018-11-20T15:12:59.123Z,35.67
2018-11-20T15:15:52.262Z,31.27
2018-11-20T15:18:47.300Z,35.27
2018-11-20T15:21:41.830Z,31.63
2018-11-20T15:24:33.725Z,33.40
2018-11-20T15:27:28.577Z,31.77
2018-11-20T15:30:19.773Z,33.27
2018-11-20T15:33:05.241Z,30.93
2018-11-20T15:35:56.479Z,32.57
2018-11-20T15:38:49.192Z,33.53
2018-11-20T15:41:34.708Z,32.90
2018-11-20T15:44:26.022Z,31.10
2018-11-20T15:47:39.298Z,34.63
2018-11-20T15:50:50.280Z,32.33
2018-11-20T15:54:05.994Z,31.57
2018-11-20T16:02:17.723Z,30.07
2018-11-20T16:05:18.422Z,30.40
2018-11-20T16:08:11.425Z,30.93
2018-11-20T16:11:12.219Z,31.60
2018-11-20T16:14:04.281Z,30.13
2018-11-20T16:16:56.448Z,29.47
2018-11-20T16:19:48.742Z,28.20
2018-11-20T16:22:42.988Z,31.23
2018-11-20T16:25:40.033Z,30.37
2018-11-20T16:28:42.601Z,28.37
2018-11-20T16:31:13.147Z,30.43
2018-11-20T16:34:09.118Z,28.17
2018-11-20T16:37:02.833Z,30.50
2018-11-20T16:39:53.768Z,31.47
2018-11-20T16:42:46.887Z,29.87
2018-11-20T16:45:48.845Z,29.13
2018-11-20T16:48:42.346Z,27.37
2018-11-20T16:51:37.338Z,29.40
2018-11-20T16:54:39.877Z,31.17
2018-11-20T16:57:28.569Z,31.03
2018-11-20T17:00:36.341Z,30.47
2018-11-20T17:03:34.285Z,28.70
2018-11-20T17:06:22.823Z,31.00
2018-11-20T17:09:17.357Z,26.60
2018-11-20T17:12:10.112Z,27.87
2018-11-20T17:15:13.032Z,28.90
2018-11-20T17:18:24.312Z,29.53
2018-11-20T17:23:53.363Z,28.57
2018-11-20T17:26:44.572Z,26.67
2018-11-20T17:29:48.170Z,23.60
2018-11-20T17:32:21.130Z,24.43
2018-11-20T17:35:30.967Z,23.20
2018-11-20T17:38:19.906Z,23.73
2018-11-20T17:41:06.433Z,24.93
2018-11-20T17:44:08.521Z,22.87
2018-11-20T17:47:05.055Z,21.00
2018-11-20T17:49:56.738Z,20.40
2018-11-20T17:52:51.020Z,20.97
2018-11-20T17:55:43.034Z,19.77
2018-11-20T17:58:51.387Z,21.20
2018-11-20T18:01:47.497Z,19.43
2018-11-20T18:07:45.583Z,21.50
2018-11-20T18:10:38.834Z,22.67
2018-11-20T18:13:44.914Z,23.17
2018-11-20T18:16:36.754Z,24.30
2018-11-20T18:19:24.831Z,21.77
2018-11-20T18:22:37.624Z,21.43
2018-11-20T18:27:43.362Z,22.90
2018-11-20T18:30:45.254Z,23.93
2018-11-20T18:36:45.122Z,26.17
2018-11-20T18:42:20.837Z,23.57
2018-11-20T18:45:15.194Z,24.40
2018-11-20T18:48:09.013Z,24.37
2018-11-20T18:51:13.050Z,24.13
2018-11-20T18:54:10.732Z,26.90
2018-11-20T18:56:41.731Z,23.53
2018-11-20T18:59:33.061Z,25.63
2018-11-20T19:02:34.903Z,25.53
2018-11-20T19:05:48.472Z,28.33
2018-11-20T19:08:18.509Z,28.80
2018-11-20T19:11:17.965Z,29.77
2018-11-20T19:14:05.543Z,26.97
2018-11-20T19:16:54.231Z,27.40
2018-11-20T19:19:48.165Z,24.33
2018-11-20T19:22:35.325Z,26.67
2018-11-20T19:28:41.567Z,26.33
2018-11-20T19:31:53.046Z,26.90
2018-11-20T19:34:18.793Z,28.20
2018-11-20T19:37:25.248Z,28.70
2018-11-20T19:40:22.216Z,26.20
2018-11-20T19:43:20.730Z,28.47
2018-11-20T19:46:19.982Z,26.80
2018-11-20T19:49:07.596Z,27.43
2018-11-20T19:52:00.978Z,28.10
2018-11-20T19:54:50.552Z,26.63
2018-11-20T19:57:46.909Z,27.47
2018-11-20T20:00:40.506Z,26.70
2018-11-20T20:03:39.456Z,27.13
2018-11-20T20:06:31.941Z,26.70
2018-11-20T20:09:22.507Z,27.87
2018-11-20T20:12:18.369Z,26.77
2018-11-20T20:18:01.122Z,26.83
2018-11-20T20:20:51.488Z,25.93
2018-11-20T20:23:33.411Z,26.53
2018-11-20T20:26:23.804Z,24.47
2018-11-20T20:29:10.240Z,24.33
2018-11-20T20:32:03.650Z,25.33
2018-11-20T20:35:03.225Z,25.77
2018-11-20T20:37:56.720Z,26.17
2018-11-20T20:40:42.894Z,26.17
2018-11-20T20:43:33.443Z,27.30
2018-11-20T20:46:26.905Z,26.00
2018-11-20T20:49:14.460Z,26.47
2018-11-20T20:52:11.111Z,26.73
2018-11-20T20:55:07.643Z,25.97
2018-11-20T20:57:53.223Z,29.37
2018-11-20T21:00:39.743Z,26.77
2018-11-20T21:03:26.056Z,27.00
2018-11-20T21:06:05.094Z,25.40
2018-11-20T21:08:51.553Z,26.07
2018-11-20T21:11:42.126Z,24.33
2018-11-20T21:14:44.881Z,27.47
2018-11-20T21:17:28.483Z,28.17
2018-11-20T21:20:19.287Z,28.00
2018-11-20T21:23:09.560Z,25.83
2018-11-20T21:25:55.997Z,25.40
2018-11-20T21:28:43.604Z,27.90
2018-11-20T21:31:30.200Z,25.63
2018-11-20T21:34:23.492Z,25.67
2018-11-20T21:37:09.940Z,24.30
2018-11-20T21:39:56.172Z,24.27
2018-11-20T21:42:43.664Z,25.30
2018-11-20T21:45:30.007Z,24.17
2018-11-20T21:48:23.323Z,26.83
2018-11-20T21:51:13.652Z,25.53
2018-11-20T21:54:04.163Z,24.03
2018-11-20T21:56:57.836Z,27.73
2018-11-20T22:00:03.474Z,26.13
2018-11-20T22:02:51.156Z,24.87
2018-11-20T22:05:50.840Z,28.37
2018-11-20T22:08:37.164Z,25.03
2018-11-20T22:11:30.757Z,25.00
2018-11-20T22:14:08.811Z,23.80
2018-11-20T22:16:56.515Z,25.60
2018-11-20T22:19:44.859Z,26.87
2018-11-20T22:22:35.325Z,24.20
2018-11-20T22:25:22.930Z,24.17
2018-11-20T22:28:19.566Z,26.27
2018-11-20T22:31:07.198Z,25.93
2018-11-20T22:34:01.005Z,25.87
2018-11-20T22:36:48.346Z,26.73
2018-11-20T22:39:41.918Z,26.40
2018-11-20T22:42:28.394Z,28.33
2018-11-20T22:45:14.972Z,25.80
2018-11-20T22:48:00.480Z,26.23
2018-11-20T22:50:51.057Z,29.20
2018-11-20T22:53:37.666Z,25.33
2018-11-20T22:56:15.159Z,28.87
2018-11-20T22:58:51.795Z,27.87
2018-11-20T23:01:45.424Z,26.13
2018-11-20T23:04:43.471Z,27.03
2018-11-20T23:07:36.790Z,28.90
2018-11-20T23:10:05.317Z,26.30
2018-11-20T23:12:33.797Z,26.90
2018-11-20T23:15:02.226Z,30.40
2018-11-20T23:17:30.731Z,28.07
2018-11-20T23:19:59.209Z,31.67
2018-11-20T23:22:27.805Z,28.47
2018-11-20T23:24:56.220Z,30.33
2018-11-20T23:27:24.715Z,28.37
2018-11-20T23:29:53.167Z,29.57
2018-11-20T23:32:21.624Z,30.37
2018-11-20T23:34:50.063Z,27.20
2018-11-20T23:37:18.549Z,30.13
2018-11-20T23:39:47.018Z,31.90
2018-11-20T23:42:15.531Z,33.87
2018-11-20T23:44:43.978Z,33.30
2018-11-20T23:47:12.420Z,30.13
2018-11-20T23:49:40.884Z,35.03
2018-11-20T23:52:09.318Z,34.40
2018-11-20T23:54:37.832Z,34.73
2018-11-20T23:57:06.262Z,34.57
2018-11-20T23:59:34.697Z,36.60
